Time;durP1;ratioP1;P1;durP2;ratioP2;P2;SDS_P1;SDS_P2;PMS_P1;PMS_P2;Temp;Humidity;BMP_temperature;BMP_pressure;BME280_temperature;BME280_humidity;BME280_pressure;Samples;Min_cycle;Max_cycle;Signal;HPM_P1;HPM_P2
2022/10/04 00:00:11;;;;;;;;;;;6.70;99.90;;;5.71;100.00;96443.72;10563729;28;2278;-69
2022/10/04 00:05:13;;;;;;;;;;;6.80;99.90;;;5.87;100.00;96437.78;10555717;28;2777;-70
2022/10/04 00:10:17;;;;;;;;;;;6.80;99.90;;;6.01;100.00;96434.94;10541740;28;2366;-69
2022/10/04 00:15:20;;;;;;;;;;;6.90;99.90;;;6.11;100.00;96443.22;10570047;28;2279;-69
2022/10/04 00:20:23;;;;;;;;;;;7.00;99.90;;;6.10;100.00;96425.53;10554344;28;2323;-69
2022/10/04 00:25:26;;;;;;;;;;;7.00;99.90;;;6.10;100.00;96422.88;10565773;28;2438;-71
2022/10/04 00:30:29;;;;;;;;;;;7.10;99.90;;;6.12;100.00;96418.94;10559461;28;2332;-74
2022/10/04 00:35:32;;;;;;;;;;;7.20;99.90;;;6.11;100.00;96419.19;10562371;28;2360;-69
2022/10/04 00:40:35;;;;;;;;;;;7.10;99.90;;;6.25;100.00;96433.13;10556836;28;2366;-69
2022/10/04 00:45:38;;;;;;;;;;;7.20;99.90;;;6.33;100.00;96406.09;10556586;28;2317;-68
2022/10/04 00:50:40;;;;;;;;;;;7.20;99.90;;;6.38;100.00;96411.56;10554713;28;2306;-68
2022/10/04 00:55:43;;;;;;;;;;;7.30;99.90;;;6.37;100.00;96405.41;10551961;28;2314;-69
2022/10/04 01:00:48;;;;;;;;;;;7.40;99.90;;;6.27;100.00;96407.81;10564571;28;2366;-69
2022/10/04 01:05:51;;;;;;;;;;;7.30;99.90;;;6.15;100.00;96405.13;10561078;27;2324;-71
2022/10/04 01:10:53;;;;;;;;;;;7.20;99.90;;;6.03;100.00;96403.47;10556541;27;2355;-71
2022/10/04 01:15:56;;;;;;;;;;;7.10;99.90;;;5.85;100.00;96391.84;10566061;28;2329;-71
2022/10/04 01:20:59;;;;;;;;;;;7.10;99.90;;;5.81;100.00;96396.00;10556725;28;2444;-71
2022/10/04 01:26:02;;;;;;;;;;;6.90;99.90;;;5.66;100.00;96392.91;10562814;28;2297;-71
2022/10/04 01:31:05;;;;;;;;;;;6.80;99.90;;;5.68;100.00;96375.66;10560193;28;2346;-69
2022/10/04 01:36:08;;;;;;;;;;;6.80;99.90;;;5.70;100.00;96383.41;10557859;28;2387;-68
2022/10/04 01:41:13;;;;;;;;;;;6.80;99.90;;;5.59;100.00;96390.34;10560994;28;2335;-69
2022/10/04 01:46:16;;;;;;;;;;;6.60;99.90;;;5.49;100.00;96379.41;10566008;28;2345;-69
2022/10/04 01:51:19;;;;;;;;;;;6.90;99.90;;;5.36;100.00;96366.28;10550592;28;2360;-70
2022/10/04 01:56:21;;;;;;;;;;;6.60;99.90;;;5.51;100.00;96368.53;10545305;28;2413;-70
2022/10/04 02:01:25;;;;;;;;;;;6.60;99.90;;;5.44;100.00;96355.28;10558589;28;2383;-70
2022/10/04 02:06:28;;;;;;;;;;;6.50;99.90;;;5.40;100.00;96346.91;10570015;28;2424;-69
2022/10/04 02:11:31;;;;;;;;;;;6.60;99.90;;;5.45;100.00;96343.56;10567884;28;2420;-69
2022/10/04 02:16:34;;;;;;;;;;;6.60;99.90;;;5.37;100.00;96352.72;10567695;28;2315;-70
2022/10/04 02:21:37;;;;;;;;;;;6.60;99.90;;;5.39;100.00;96350.63;10565451;28;2289;-71
2022/10/04 02:26:40;;;;;;;;;;;6.60;99.90;;;5.20;100.00;96343.72;10571135;28;2457;-71
2022/10/04 02:37:03;;;;;;;;;;;6.00;99.90;;;5.31;100.00;96342.94;10570508;28;2384;-69
2022/10/04 02:42:06;;;;;;;;;;;6.50;99.90;;;5.25;100.00;96354.50;10574246;28;2297;-70
2022/10/04 02:47:09;;;;;;;;;;;6.20;99.90;;;5.13;100.00;96356.31;10562388;28;2348;-70
2022/10/04 02:52:15;;;;;;;;;;;6.40;99.90;;;5.09;100.00;96349.78;10576907;28;2375;-70
2022/10/04 02:57:18;;;;;;;;;;;6.20;99.90;;;5.00;100.00;96351.16;10560382;28;2338;-70
2022/10/04 03:02:21;;;;;;;;;;;6.10;99.90;;;4.94;100.00;96349.38;10571700;28;2347;-70
2022/10/04 03:07:31;;;;;;;;;;;5.90;99.90;;;4.94;100.00;96341.41;10557843;28;2475;-69
2022/10/04 03:12:34;;;;;;;;;;;6.10;99.90;;;5.03;100.00;96340.06;10559178;28;2873;-70
2022/10/04 03:17:40;;;;;;;;;;;6.10;99.90;;;5.00;100.00;96346.63;10561371;28;2337;-70
2022/10/04 03:22:44;;;;;;;;;;;6.20;99.90;;;5.05;100.00;96338.78;10567026;28;2361;-70
2022/10/04 03:27:48;;;;;;;;;;;6.20;99.90;;;4.98;100.00;96337.25;10566762;28;2413;-69
2022/10/04 03:32:51;;;;;;;;;;;6.10;99.90;;;5.15;100.00;96323.09;10565187;28;2701;-69
2022/10/04 03:37:55;;;;;;;;;;;6.20;99.90;;;5.08;100.00;96332.19;10556479;28;2291;-71
2022/10/04 03:42:59;;;;;;;;;;;6.30;99.90;;;4.99;100.00;96338.88;10565966;28;2410;-70
2022/10/04 03:48:02;;;;;;;;;;;6.20;99.90;;;5.04;100.00;96336.34;10567879;28;2373;-70
2022/10/04 03:53:04;;;;;;;;;;;6.20;99.90;;;5.06;100.00;96334.28;10561361;28;2853;-70
2022/10/04 03:58:08;;;;;;;;;;;;;;;5.14;100.00;96342.75;10563559;28;2413;-70
2022/10/04 04:03:10;;;;;;;;;;;6.30;99.90;;;5.02;100.00;96347.22;10547542;28;2277;-77
2022/10/04 04:08:14;;;;;;;;;;;6.20;99.90;;;4.93;100.00;96342.44;10558489;28;2301;-75
2022/10/04 04:13:16;;;;;;;;;;;6.20;99.90;;;4.83;100.00;96341.09;10563331;28;2513;-70
2022/10/04 04:18:19;;;;;;;;;;;6.00;99.90;;;4.94;100.00;96333.41;10563105;28;2324;-69
2022/10/04 04:23:22;;;;;;;;;;;6.00;99.90;;;5.02;100.00;96331.22;10562050;27;2422;-70
2022/10/04 04:28:25;;;;;;;;;;;6.20;99.90;;;4.91;100.00;96337.34;10562738;28;2333;-69
2022/10/04 04:33:28;;;;;;;;;;;6.20;99.90;;;4.81;100.00;96343.19;10560413;28;2321;-69
2022/10/04 04:38:32;;;;;;;;;;;6.00;99.90;;;4.71;100.00;96348.22;10555618;28;2668;-69
2022/10/04 04:43:35;;;;;;;;;;;;;;;4.67;100.00;96344.38;10562561;28;2364;-71
2022/10/04 04:48:37;;;;;;;;;;;5.80;99.90;;;4.80;100.00;96341.56;10564089;28;2442;-73
2022/10/04 04:53:40;;;;;;;;;;;5.90;99.90;;;4.77;100.00;96336.69;10557607;28;2303;-70
2022/10/04 04:58:44;;;;;;;;;;;5.90;99.90;;;4.75;100.00;96343.25;10558395;28;2352;-72
2022/10/04 05:03:48;;;;;;;;;;;5.90;99.90;;;4.72;100.00;96333.06;10563984;28;2323;-70
2022/10/04 05:08:51;;;;;;;;;;;5.90;99.90;;;4.77;100.00;96330.53;10562610;28;2658;-71
2022/10/04 05:13:55;;;;;;;;;;;5.90;99.90;;;4.70;100.00;96349.25;10565382;28;2231;-71
2022/10/04 05:18:58;;;;;;;;;;;5.80;99.90;;;4.91;100.00;96347.19;10569072;28;2415;-72
2022/10/04 05:24:01;;;;;;;;;;;5.90;99.90;;;4.96;100.00;96341.97;10560421;28;2400;-70
2022/10/04 05:29:04;;;;;;;;;;;6.00;99.90;;;5.12;100.00;96344.03;10562393;28;2346;-71
2022/10/04 05:34:07;;;;;;;;;;;6.10;99.90;;;5.27;100.00;96340.94;10561531;28;2395;-72
2022/10/04 05:39:09;;;;;;;;;;;6.20;99.90;;;5.38;100.00;96338.34;10560473;28;2383;-70
2022/10/04 05:44:12;;;;;;;;;;;6.30;99.90;;;5.69;100.00;96331.94;10556651;28;2372;-71
2022/10/04 05:49:16;;;;;;;;;;;6.50;99.90;;;5.95;100.00;96325.38;10563714;28;2285;-71
2022/10/04 05:54:21;;;;;;;;;;;6.80;99.90;;;6.33;100.00;96326.78;10561452;28;2524;-71
2022/10/04 05:59:24;;;;;;;;;;;7.00;99.90;;;6.53;100.00;96333.63;10551335;28;2282;-72
2022/10/04 06:04:27;;;;;;;;;;;7.30;99.90;;;6.91;100.00;96338.44;10554419;28;2300;-72
2022/10/04 06:09:29;;;;;;;;;;;7.50;99.90;;;7.13;100.00;96360.00;10560871;28;2668;-70
2022/10/04 06:14:32;;;;;;;;;;;7.90;99.90;;;7.55;100.00;96347.97;10563303;28;2452;-69
2022/10/04 06:19:36;;;;;;;;;;;8.10;99.90;;;7.63;100.00;96327.22;10544156;28;2389;-70
2022/10/04 06:24:38;;;;;;;;;;;8.40;99.90;;;7.68;100.00;96332.66;10559105;28;2350;-70
2022/10/04 06:29:41;;;;;;;;;;;8.60;99.90;;;7.77;100.00;96328.56;10581334;27;2425;-70
2022/10/04 06:34:44;;;;;;;;;;;8.50;99.90;;;7.70;100.00;96341.25;10558131;28;2339;-70
2022/10/04 06:39:48;;;;;;;;;;;8.70;99.90;;;7.95;100.00;96351.56;10563988;28;2400;-70
2022/10/04 06:44:50;;;;;;;;;;;8.80;99.90;;;8.07;100.00;96342.41;10556200;28;2351;-71
2022/10/04 06:49:53;;;;;;;;;;;8.80;99.90;;;8.17;100.00;96335.63;10559420;28;2311;-72
2022/10/04 06:54:56;;;;;;;;;;;8.90;99.90;;;8.34;100.00;96349.81;10562065;28;2324;-72
2022/10/04 06:59:59;;;;;;;;;;;9.20;99.90;;;8.90;100.00;96338.00;10572476;28;2639;-71
2022/10/04 07:05:11;;;;;;;;;;;9.40;99.90;;;9.30;100.00;96318.09;10557624;28;2287;-71
2022/10/04 07:10:15;;;;;;;;;;;9.90;99.90;;;9.77;100.00;96309.44;10561502;28;2361;-72
2022/10/04 07:15:18;;;;;;;;;;;10.30;99.90;;;9.92;100.00;96311.44;10569569;28;2425;-72
2022/10/04 07:20:21;;;;;;;;;;;10.60;99.90;;;10.01;100.00;96309.91;10564499;28;2386;-72
2022/10/04 07:25:24;;;;;;;;;;;10.70;99.90;;;10.20;100.00;96321.88;10558143;28;2356;-72
2022/10/04 07:30:31;;;;;;;;;;;10.80;99.90;;;10.42;100.00;96331.72;10566913;28;2351;-72
2022/10/04 07:35:34;;;;;;;;;;;11.00;99.90;;;10.78;100.00;96330.06;10566912;28;2330;-74
2022/10/04 07:40:36;;;;;;;;;;;11.20;99.90;;;11.13;100.00;96332.09;10559998;28;2432;-71
2022/10/04 07:45:39;;;;;;;;;;;11.60;99.90;;;11.31;100.00;96334.31;10564054;28;2374;-72
2022/10/04 07:50:43;;;;;;;;;;;11.80;99.90;;;11.57;100.00;96331.69;10567100;28;2336;-72
2022/10/04 07:55:46;;;;;;;;;;;12.00;99.90;;;11.00;100.00;96349.53;10564083;28;2328;-72
2022/10/04 08:00:49;;;;;;;;;;;12.00;99.90;;;10.61;100.00;96357.13;10563693;28;2333;-71
2022/10/04 08:05:51;;;;;;;;;;;11.60;99.90;;;10.56;100.00;96354.41;10566345;28;2671;-72
2022/10/04 08:10:55;;;;;;;;;;;11.60;99.90;;;10.61;100.00;96364.38;10570486;28;2406;-73
2022/10/04 08:16:00;;;;;;;;;;;11.40;99.90;;;10.64;100.00;96350.44;10561075;28;2501;-71
2022/10/04 08:21:02;;;;;;;;;;;11.50;99.90;;;10.96;100.00;96359.22;10557057;28;2423;-71
2022/10/04 08:26:05;;;;;;;;;;;11.70;99.90;;;11.28;100.00;96351.00;10556961;28;2322;-71
2022/10/04 08:31:09;;;;;;;;;;;12.00;99.90;;;11.43;100.00;96350.25;10563200;28;2201;-70
2022/10/04 08:36:15;;;;;;;;;;;12.20;99.90;;;11.11;100.00;96353.09;10558563;28;2332;-71
2022/10/04 08:41:19;;;;;;;;;;;12.10;99.90;;;11.41;100.00;96359.66;10546399;28;2299;-72
2022/10/04 08:46:22;;;;;;;;;;;12.10;99.90;;;11.96;100.00;96350.09;10563181;28;2362;-72
2022/10/04 08:51:25;;;;;;;;;;;12.50;99.90;;;11.74;100.00;96344.94;10557182;28;2278;-70
2022/10/04 08:56:28;;;;;;;;;;;12.60;99.90;;;12.07;100.00;96347.16;10551174;28;2160;-71
2022/10/04 09:01:31;;;;;;;;;;;12.70;99.90;;;12.12;100.00;96332.88;10559128;28;2310;-72
2022/10/04 09:06:35;;;;;;;;;;;12.90;99.90;;;12.98;100.00;96324.66;10549808;28;2584;-71
2022/10/04 09:11:40;;;;;;;;;;;;;;;13.08;100.00;96331.91;10561712;28;2180;-71
2022/10/04 09:16:43;;;;;;;;;;;13.50;99.90;;;13.37;100.00;96326.69;10545953;28;2376;-73
2022/10/04 09:21:47;;;;;;;;;;;13.90;99.90;;;13.31;100.00;96338.59;10555898;28;2189;-72
2022/10/04 09:26:49;;;;;;;;;;;14.10;99.90;;;13.61;100.00;96334.13;10562253;28;2251;-70
2022/10/04 09:31:52;;;;;;;;;;;14.20;99.90;;;13.57;100.00;96335.78;10552081;28;2140;-70
2022/10/04 09:36:57;;;;;;;;;;;14.40;99.90;;;13.35;100.00;96333.44;10569995;28;2254;-72
2022/10/04 09:41:59;;;;;;;;;;;14.20;99.90;;;13.46;100.00;96319.59;10556746;28;2555;-75
2022/10/04 09:47:02;;;;;;;;;;;14.10;99.90;;;13.43;100.00;96314.78;10554132;28;2290;-74
2022/10/04 09:52:05;;;;;;;;;;;14.20;99.90;;;13.65;100.00;96305.47;10558941;28;2335;-76
2022/10/04 09:57:08;;;;;;;;;;;14.40;99.90;;;13.98;100.00;96320.91;10557946;28;2192;-73
2022/10/04 10:02:12;;;;;;;;;;;14.60;99.90;;;14.38;100.00;96313.56;10561210;28;2167;-77
2022/10/04 10:07:15;;;;;;;;;;;14.90;99.90;;;14.71;100.00;96330.88;10566678;28;2200;-73
2022/10/04 10:17:39;;;;;;;;;;;15.50;99.90;;;14.77;97.72;96316.19;10557956;28;2238;-73
2022/10/04 10:22:41;;;;;;;;;;;15.80;99.90;;;14.57;100.00;96295.56;10547453;28;2294;-72
2022/10/04 10:27:44;;;;;;;;;;;15.60;99.90;;;14.60;97.71;96315.81;10561627;28;2097;-72
2022/10/04 10:32:47;;;;;;;;;;;15.50;99.90;;;14.48;100.00;96318.09;10567116;28;2190;-71
2022/10/04 10:37:51;;;;;;;;;;;15.30;99.90;;;14.45;98.34;96334.88;10562860;28;2529;-71
2022/10/04 10:42:56;;;;;;;;;;;15.40;99.90;;;14.18;100.00;96329.94;10562982;28;2146;-71
2022/10/04 10:48:00;;;;;;;;;;;15.30;99.90;;;14.21;100.00;96335.59;10575879;28;2278;-73
2022/10/04 10:53:03;;;;;;;;;;;15.30;99.90;;;14.22;100.00;96337.22;10560590;28;2242;-72
2022/10/04 10:58:06;;;;;;;;;;;15.30;99.90;;;14.20;100.00;96333.19;10554767;28;2621;-72
2022/10/04 11:03:10;;;;;;;;;;;15.30;99.90;;;14.70;100.00;96328.44;10553137;28;2194;-74
2022/10/04 11:08:15;;;;;;;;;;;15.50;99.90;;;15.13;98.25;96327.41;10576173;28;2206;-74
2022/10/04 11:13:20;;;;;;;;;;;15.90;99.90;;;15.25;96.69;96320.78;10566690;28;2281;-71
2022/10/04 11:18:22;;;;;;;;;;;15.90;99.90;;;15.23;95.25;96317.56;10559017;28;2304;-71
2022/10/04 11:23:25;;;;;;;;;;;16.10;99.90;;;14.97;97.50;96308.94;10555544;28;2213;-71
2022/10/04 11:28:28;;;;;;;;;;;15.90;99.90;;;15.30;93.80;96315.31;10574737;28;2202;-71
2022/10/04 11:33:31;;;;;;;;;;;16.00;99.90;;;15.36;93.41;96317.66;10560967;28;2278;-73
2022/10/04 11:38:34;;;;;;;;;;;16.20;99.90;;;15.35;97.29;96305.22;10565051;28;2234;-72
2022/10/04 11:43:37;;;;;;;;;;;16.10;99.90;;;15.16;92.34;96298.97;10561694;27;2332;-71
2022/10/04 11:48:40;;;;;;;;;;;16.10;99.90;;;14.98;90.23;96302.41;10556630;28;2127;-71
2022/10/04 11:53:43;;;;;;;;;;;16.00;99.90;;;15.34;86.91;96305.50;10553503;28;2202;-71
2022/10/04 11:58:46;;;;;;;;;;;16.00;99.90;;;15.52;86.99;96302.00;10564744;28;2170;-71
2022/10/04 12:03:49;;;;;;;;;;;16.30;99.90;;;15.53;86.65;96300.91;10561758;28;2174;-71
2022/10/04 12:08:52;;;;;;;;;;;16.30;99.90;;;15.61;85.86;96286.69;10551435;28;2146;-73
2022/10/04 12:13:55;;;;;;;;;;;16.60;99.90;;;16.31;81.69;96272.34;10558447;28;2210;-72
2022/10/04 12:18:58;;;;;;;;;;;16.80;99.90;;;16.04;79.19;96273.09;10570064;28;2141;-72
2022/10/04 12:24:03;;;;;;;;;;;17.00;99.90;;;16.03;83.80;96262.50;10555325;28;2253;-72
2022/10/04 12:29:06;;;;;;;;;;;16.90;99.90;;;16.63;79.26;96257.94;10562308;28;2194;-73
2022/10/04 12:34:13;;;;;;;;;;;17.10;99.90;;;16.57;74.07;96259.13;10551811;28;2617;-72
2022/10/04 12:39:16;;;;;;;;;;;17.40;99.90;;;16.15;76.45;96252.00;10557538;28;2298;-72
2022/10/04 12:44:19;;;;;;;;;;;17.30;99.90;;;15.72;81.99;96264.91;10555749;28;2233;-72
2022/10/04 12:49:32;;;;;;;;;;;17.00;99.90;;;15.83;86.09;96255.50;10562699;28;2211;-72
2022/10/04 12:54:34;;;;;;;;;;;16.80;99.90;;;15.24;88.76;96265.00;10555763;28;2215;-72
2022/10/04 12:59:37;;;;;;;;;;;16.60;99.90;;;14.97;90.76;96258.31;10563687;28;2262;-72
2022/10/04 13:04:40;;;;;;;;;;;16.30;99.90;;;14.79;92.88;96253.66;10553649;28;2148;-72
2022/10/04 13:09:43;;;;;;;;;;;16.00;99.90;;;14.52;95.89;96244.22;10563201;28;2162;-72
2022/10/04 13:15:06;;;;;;;;;;;15.70;99.90;;;14.37;96.98;96240.81;10562900;28;2188;-72
2022/10/04 13:20:09;;;;;;;;;;;15.60;99.90;;;14.49;95.21;96238.56;10557960;28;2514;-71
2022/10/04 13:25:12;;;;;;;;;;;15.50;99.90;;;14.50;94.42;96237.44;10555229;28;2194;-71
2022/10/04 13:30:15;;;;;;;;;;;15.60;99.90;;;14.52;95.00;96238.78;10546261;28;2249;-70
2022/10/04 13:35:20;;;;;;;;;;;15.50;99.90;;;14.55;93.01;96246.31;10549437;28;2155;-73
2022/10/04 13:40:23;;;;;;;;;;;15.50;99.90;;;14.31;93.43;96238.19;10551376;28;2263;-71
2022/10/04 13:45:27;;;;;;;;;;;15.40;99.90;;;14.51;91.60;96233.69;10554345;28;2264;-71
2022/10/04 13:50:30;;;;;;;;;;;15.40;99.90;;;14.50;91.40;96240.16;10540435;28;2187;-72
2022/10/04 14:00:54;;;;;;;;;;;15.50;99.90;;;14.79;89.43;96248.22;10561184;28;2206;-71
2022/10/04 14:05:57;;;;;;;;;;;15.60;99.90;;;14.73;86.89;96252.09;10571659;28;2282;-71
2022/10/04 14:10:59;;;;;;;;;;;15.70;99.90;;;14.84;86.91;96253.59;10575643;28;2287;-73
2022/10/04 14:16:02;;;;;;;;;;;15.80;99.90;;;14.83;85.57;96250.09;10562477;28;2236;-74
2022/10/04 14:21:05;;;;;;;;;;;15.80;99.90;;;15.03;85.78;96249.03;10559687;28;2211;-72
2022/10/04 14:26:08;;;;;;;;;;;15.90;99.90;;;14.89;86.94;96242.72;10565585;28;2359;-74
2022/10/04 14:31:18;;;;;;;;;;;15.90;99.90;;;14.84;86.81;96240.88;10568950;28;2217;-72
2022/10/04 14:36:22;;;;;;;;;;;15.90;99.90;;;14.79;83.68;96250.94;10556519;28;2573;-76
2022/10/04 14:41:26;;;;;;;;;;;15.90;99.90;;;14.90;83.18;96232.69;10555093;28;2364;-74
2022/10/04 14:46:29;;;;;;;;;;;15.90;99.90;;;14.87;82.14;96236.75;10537917;28;2168;-73
2022/10/04 14:51:32;;;;;;;;;;;15.90;99.90;;;14.75;84.86;96242.59;10571408;28;2258;-74
2022/10/04 14:56:35;;;;;;;;;;;15.80;99.90;;;14.72;85.22;96245.06;10561238;28;2301;-71
2022/10/04 15:01:38;;;;;;;;;;;15.80;99.90;;;14.60;84.88;96246.28;10567047;28;2244;-71
2022/10/04 15:06:41;;;;;;;;;;;15.70;99.90;;;14.62;84.54;96253.28;10554170;28;1961;-70
2022/10/04 15:11:46;;;;;;;;;;;15.70;99.90;;;14.70;86.17;96249.97;10560929;28;1925;-71
2022/10/04 15:17:10;;;;;;;;;;;15.60;99.90;;;14.64;87.39;96246.53;10555796;28;1921;-71
2022/10/04 15:22:13;;;;;;;;;;;15.60;99.90;;;14.64;86.99;96248.41;10561305;28;1976;-72
2022/10/04 15:27:16;;;;;;;;;;;15.70;99.90;;;14.54;88.28;96252.84;10570393;28;1727;-72
2022/10/04 15:32:19;;;;;;;;;;;15.70;99.90;;;14.40;87.45;96256.47;10567244;28;1886;-71
2022/10/04 15:37:24;;;;;;;;;;;15.50;99.90;;;14.35;88.59;96249.22;10550589;28;1976;-69
2022/10/04 15:42:28;;;;;;;;;;;15.40;99.90;;;14.30;88.56;96258.19;10559461;28;1976;-70
2022/10/04 15:47:30;;;;;;;;;;;15.40;99.90;;;14.18;90.14;96255.03;10553866;28;1916;-70
2022/10/04 15:52:33;;;;;;;;;;;15.20;99.90;;;14.05;90.77;96245.69;10557103;28;1814;-71
2022/10/04 15:57:36;;;;;;;;;;;15.20;99.90;;;13.94;92.80;96241.50;10516033;28;1152738;-69
2022/10/04 16:02:39;;;;;;;;;;;15.10;99.90;;;13.81;96.31;96250.25;10550833;28;2128;-69
2022/10/04 16:07:42;;;;;;;;;;;15.00;99.90;;;13.79;97.86;96247.00;10568047;28;1947;-70
2022/10/04 16:12:45;;;;;;;;;;;14.90;99.90;;;13.57;100.00;96243.94;10563661;28;2222;-71
2022/10/04 16:17:48;;;;;;;;;;;14.80;99.90;;;13.37;100.00;96245.69;10563226;28;1965;-70
2022/10/04 16:22:51;;;;;;;;;;;14.60;99.90;;;13.23;100.00;96241.97;10535691;28;1989;-70
2022/10/04 16:28:02;;;;;;;;;;;14.40;99.90;;;12.97;100.00;96246.66;10536451;28;1921;-70
2022/10/04 16:33:07;;;;;;;;;;;14.20;99.90;;;12.85;100.00;96247.00;10542847;28;1928;-71
2022/10/04 16:38:11;;;;;;;;;;;14.00;99.90;;;12.59;100.00;96248.16;10546011;28;2026;-69
2022/10/04 16:43:14;;;;;;;;;;;13.90;99.90;;;12.44;100.00;96238.22;10541332;28;1980;-69
2022/10/04 16:48:17;;;;;;;;;;;13.70;99.90;;;12.33;100.00;96247.41;10557191;28;1996;-69
2022/10/04 16:53:20;;;;;;;;;;;13.50;99.90;;;12.08;100.00;96253.66;10527359;28;2080;-74
2022/10/04 16:58:23;;;;;;;;;;;13.40;99.90;;;11.84;100.00;96251.53;10551560;28;2225;-67
2022/10/04 17:03:25;;;;;;;;;;;13.20;99.90;;;11.73;100.00;96249.88;10562701;28;2358;-67
2022/10/04 17:08:28;;;;;;;;;;;13.00;99.90;;;11.72;100.00;96242.06;10556835;28;2284;-67
2022/10/04 17:13:32;;;;;;;;;;;12.90;99.90;;;11.67;100.00;96250.94;10561062;28;2210;-68
2022/10/04 17:18:35;;;;;;;;;;;12.80;99.90;;;11.51;100.00;96246.59;10533333;28;2248;-70
2022/10/04 17:23:39;;;;;;;;;;;13.00;99.90;;;11.24;100.00;96252.22;10560263;28;1941;-72
2022/10/04 17:28:41;;;;;;;;;;;12.60;99.90;;;11.18;100.00;96264.84;10557172;28;1947;-74
2022/10/04 17:33:44;;;;;;;;;;;12.40;99.90;;;10.91;100.00;96264.22;10554706;28;2107;-76
2022/10/04 17:38:48;;;;;;;;;;;12.20;99.90;;;10.73;100.00;96265.50;10565116;28;1955;-77
2022/10/04 17:43:50;;;;;;;;;;;12.10;99.90;;;10.63;100.00;96268.16;10562692;28;1987;-76
2022/10/04 17:59:41;;;;;;;;;;;11.70;99.90;;;10.48;100.00;96279.63;10556330;28;2159;-72
2022/10/04 18:04:44;;;;;;;;;;;11.70;99.90;;;10.27;100.00;96289.44;10551666;28;1914;-71
2022/10/04 18:09:47;;;;;;;;;;;11.60;99.90;;;10.13;100.00;96280.19;10560045;28;1945;-72
2022/10/04 18:14:52;;;;;;;;;;;11.50;99.90;;;9.96;100.00;96285.69;10555965;28;2119;-77
2022/10/04 18:19:55;;;;;;;;;;;11.40;99.90;;;9.89;100.00;96291.28;10540463;28;2054;-71
2022/10/04 18:24:58;;;;;;;;;;;11.20;99.90;;;9.96;100.00;96296.44;10545187;28;1985;-72
2022/10/04 18:30:01;;;;;;;;;;;11.20;99.90;;;9.82;100.00;96297.94;10564407;28;1947;-73
2022/10/04 18:35:05;;;;;;;;;;;11.20;99.90;;;9.84;100.00;96287.75;10558425;28;1935;-73
2022/10/04 18:40:09;;;;;;;;;;;11.10;99.90;;;9.78;100.00;96299.50;10553942;28;1956;-70
2022/10/04 18:45:13;;;;;;;;;;;11.10;99.90;;;9.85;100.00;96294.72;10544324;28;2032;-73
2022/10/04 18:50:16;;;;;;;;;;;11.00;99.90;;;9.91;100.00;96294.50;10564069;28;1960;-74
2022/10/04 18:55:19;;;;;;;;;;;11.00;99.90;;;9.74;100.00;96304.59;10552947;28;2097;-75
2022/10/04 19:06:02;;;;;;;;;;;10.90;99.90;;;9.55;100.00;96306.81;10490177;28;2048;-74
2022/10/04 19:11:08;;;;;;;;;;;10.80;99.90;;;9.41;100.00;96300.22;10575084;28;1959;-74
2022/10/04 19:16:11;;;;;;;;;;;10.70;99.90;;;9.29;100.00;96305.75;10570867;28;1931;-72
2022/10/04 19:21:15;;;;;;;;;;;10.60;99.90;;;9.15;100.00;96313.38;10555917;28;1984;-72
2022/10/04 19:26:19;;;;;;;;;;;10.50;99.90;;;9.20;100.00;96316.09;10568904;28;1949;-73
2022/10/04 19:31:34;;;;;;;;;;;10.50;99.90;;;9.12;100.00;96323.81;10574054;28;1779;-75
2022/10/04 19:36:38;;;;;;;;;;;10.40;99.90;;;9.01;100.00;96333.59;10565460;28;1913;-73
2022/10/04 19:41:41;;;;;;;;;;;10.30;99.90;;;8.93;100.00;96334.03;10573952;28;1946;-74
2022/10/04 19:46:44;;;;;;;;;;;10.20;99.90;;;8.97;100.00;96323.59;10569912;28;1897;-74
2022/10/04 19:51:50;;;;;;;;;;;10.20;99.90;;;9.00;100.00;96315.88;10576058;28;1707;-74
2022/10/04 19:56:52;;;;;;;;;;;10.30;99.90;;;8.95;100.00;96315.81;10568906;28;1879;-76
2022/10/04 20:01:56;;;;;;;;;;;10.20;99.90;;;8.86;100.00;96325.38;10574006;28;1984;-76
2022/10/04 20:06:59;;;;;;;;;;;10.20;99.90;;;8.81;100.00;96333.34;10572820;28;1815;-75
2022/10/04 20:12:02;;;;;;;;;;;10.00;99.90;;;8.75;100.00;96332.44;10578912;28;1929;-76
2022/10/04 20:17:04;;;;;;;;;;;10.00;99.90;;;8.65;100.00;96319.75;10580081;28;1922;-75
2022/10/04 20:22:08;;;;;;;;;;;10.00;99.90;;;8.62;100.00;96322.91;10578397;28;1951;-73
2022/10/04 20:27:13;;;;;;;;;;;9.90;99.90;;;8.78;100.00;96325.78;10572298;28;1887;-77
2022/10/04 20:32:15;;;;;;;;;;;9.90;99.90;;;8.83;100.00;96328.53;10569453;28;1981;-73
2022/10/04 20:37:20;;;;;;;;;;;10.00;99.90;;;8.81;100.00;96330.66;10570843;28;1929;-74
2022/10/04 20:42:24;;;;;;;;;;;10.00;99.90;;;8.70;100.00;96329.69;10571910;28;1969;-74
2022/10/04 20:47:27;;;;;;;;;;;10.00;99.90;;;8.57;100.00;96322.03;10569680;28;1798;-74
2022/10/04 20:52:30;;;;;;;;;;;9.90;99.90;;;8.50;100.00;96321.38;10567153;28;1830;-76
2022/10/04 20:57:33;;;;;;;;;;;9.80;99.90;;;8.44;100.00;96333.09;10562663;28;1913;-74
2022/10/04 21:02:42;;;;;;;;;;;9.70;99.90;;;8.41;100.00;96338.97;10573755;28;1980;-74
2022/10/04 21:07:44;;;;;;;;;;;9.60;99.90;;;8.35;100.00;96338.88;10568765;28;1928;-75
2022/10/04 21:12:48;;;;;;;;;;;9.60;99.90;;;8.28;100.00;96354.28;10572183;28;1985;-74
2022/10/04 21:17:51;;;;;;;;;;;9.50;99.90;;;8.31;100.00;96352.97;10567467;28;1956;-73
2022/10/04 21:22:54;;;;;;;;;;;9.50;99.90;;;8.22;100.00;96351.75;10562418;28;1992;-74
2022/10/04 21:27:57;;;;;;;;;;;9.50;99.90;;;8.22;100.00;96359.81;10551798;28;1973;-74
2022/10/04 21:33:03;;;;;;;;;;;9.40;99.90;;;8.10;100.00;96360.69;10550929;28;1889;-77
2022/10/04 21:38:06;;;;;;;;;;;9.40;99.90;;;8.20;100.00;96356.53;10570140;28;1940;-73
2022/10/04 21:43:09;;;;;;;;;;;9.40;99.90;;;8.17;100.00;96365.88;10574489;28;1980;-75
2022/10/04 21:48:12;;;;;;;;;;;9.30;99.90;;;8.12;100.00;96371.97;10553447;28;1969;-77
2022/10/04 21:53:15;;;;;;;;;;;9.30;99.90;;;7.97;100.00;96370.91;10571307;28;1913;-76
2022/10/04 21:58:17;;;;;;;;;;;9.30;99.90;;;7.98;100.00;96378.69;10570601;28;1921;-75
2022/10/04 22:03:20;;;;;;;;;;;9.20;99.90;;;7.92;100.00;96381.53;10572001;28;1902;-75
2022/10/04 22:08:23;;;;;;;;;;;9.20;99.90;;;7.92;100.00;96374.31;10570561;28;1640;-76
2022/10/04 22:13:26;;;;;;;;;;;9.10;99.90;;;7.86;100.00;96375.25;10565498;28;2103;-75
2022/10/04 22:18:29;;;;;;;;;;;9.00;99.90;;;7.76;100.00;96364.38;10558757;28;1881;-75
2022/10/04 22:23:36;;;;;;;;;;;9.00;99.90;;;7.76;100.00;96367.03;10571876;28;1910;-75
2022/10/04 22:28:39;;;;;;;;;;;9.00;99.90;;;7.72;100.00;96361.38;10572845;28;1881;-75
2022/10/04 22:33:42;;;;;;;;;;;9.00;99.90;;;7.76;100.00;96364.38;10570605;28;1866;-73
2022/10/04 22:38:45;;;;;;;;;;;9.00;99.90;;;7.75;100.00;96368.09;10563865;28;1794;-73
2022/10/04 22:43:48;;;;;;;;;;;9.00;99.90;;;7.69;100.00;96355.69;10566030;28;2221;-75
2022/10/04 22:48:50;;;;;;;;;;;8.90;99.90;;;7.68;100.00;96362.09;10569379;28;1854;-75
2022/10/04 22:53:53;;;;;;;;;;;8.90;99.90;;;7.61;100.00;96364.09;10578182;28;1890;-74
2022/10/04 22:58:57;;;;;;;;;;;8.90;99.90;;;7.50;100.00;96376.47;10569271;28;1795;-74
2022/10/04 23:04:00;;;;;;;;;;;8.80;99.90;;;7.57;100.00;96375.31;10565317;28;1904;-73
2022/10/04 23:09:03;;;;;;;;;;;8.70;99.90;;;7.54;100.00;96373.09;10559697;28;1777;-75
2022/10/04 23:14:06;;;;;;;;;;;8.70;99.90;;;7.49;100.00;96382.88;10563930;28;1929;-73
2022/10/04 23:19:09;;;;;;;;;;;8.70;99.90;;;7.44;100.00;96378.25;10568687;28;1766;-73
2022/10/04 23:24:13;;;;;;;;;;;8.60;99.90;;;7.39;100.00;96380.84;10564013;28;1906;-72
2022/10/04 23:29:16;;;;;;;;;;;8.50;99.90;;;7.30;100.00;96379.59;10578870;28;1941;-74
2022/10/04 23:34:19;;;;;;;;;;;8.50;99.90;;;7.35;100.00;96381.56;10572094;28;1886;-75
2022/10/04 23:39:22;;;;;;;;;;;8.50;99.90;;;7.24;100.00;96383.22;10578513;28;1874;-76
2022/10/04 23:44:25;;;;;;;;;;;8.40;99.90;;;7.26;100.00;96381.94;10580108;28;1993;-75
2022/10/04 23:49:28;;;;;;;;;;;8.50;99.90;;;7.19;100.00;96385.78;10583166;28;2060;-74